Time;durP1;ratioP1;P1;durP2;ratioP2;P2;SDS_P1;SDS_P2;PMS_P1;PMS_P2;Temp;Humidity;BMP_temperature;BMP_pressure;BME280_temperature;BME280_humidity;BME280_pressure;Samples;Min_cycle;Max_cycle;Signal;HPM_P1;HPM_P2
2022/12/28 00:00:29;;;;;;;7.10;2.45;;;6.10;99.90;;;;;;5074008;28;20086;-90
2022/12/28 00:02:56;;;;;;;11.52;3.38;;;6.10;99.90;;;;;;5055773;28;20498;-89
2022/12/28 00:05:21;;;;;;;11.02;2.72;;;6.00;99.90;;;;;;5091079;28;20040;-90
2022/12/28 00:07:47;;;;;;;8.65;2.55;;;6.00;99.90;;;;;;5063293;28;20047;-90
2022/12/28 00:10:13;;;;;;;9.25;2.92;;;6.00;99.90;;;;;;5072545;28;20040;-90
2022/12/28 00:12:38;;;;;;;8.68;2.55;;;6.00;99.90;;;;;;5048329;28;20173;-90
2022/12/28 00:15:04;;;;;;;11.20;3.42;;;6.00;99.90;;;;;;5076788;28;20036;-90
2022/12/28 00:17:30;;;;;;;11.38;2.97;;;6.00;99.90;;;;;;5085578;28;20044;-90
2022/12/28 00:19:58;;;;;;;9.88;3.22;;;6.00;99.90;;;;;;5061124;28;20063;-90
2022/12/28 00:22:25;;;;;;;9.90;2.75;;;6.00;99.90;;;;;;5055099;28;20044;-91
2022/12/28 00:24:51;;;;;;;9.55;3.22;;;6.00;99.90;;;;;;5062413;28;20088;-90
2022/12/28 00:27:16;;;;;;;6.18;2.75;;;6.00;99.90;;;;;;5076440;28;20486;-89
2022/12/28 00:29:42;;;;;;;8.70;3.30;;;6.00;99.90;;;;;;5076192;28;20036;-90
2022/12/28 00:32:08;;;;;;;10.70;2.97;;;6.00;99.90;;;;;;5057252;28;20635;-90
2022/12/28 00:34:33;;;;;;;9.00;2.63;;;6.00;99.90;;;;;;5074181;28;20060;-90
2022/12/28 00:36:59;;;;;;;11.98;5.07;;;6.00;99.90;;;;;;5063656;28;20406;-90
2022/12/28 00:39:25;;;;;;;10.30;3.22;;;6.00;99.90;;;;;;5055891;28;20518;-90
2022/12/28 00:41:50;;;;;;;8.65;2.80;;;6.00;99.90;;;;;;5055921;28;20068;-89
2022/12/28 00:44:16;;;;;;;10.50;3.30;;;6.00;99.90;;;;;;5042689;28;20043;-90
2022/12/28 00:46:42;;;;;;;7.93;2.45;;;6.00;99.90;;;;;;5059242;28;20054;-90
2022/12/28 00:49:07;;;;;;;8.95;2.83;;;6.00;99.90;;;;;;5075974;28;20028;-90
2022/12/28 00:51:33;;;;;;;8.32;3.00;;;6.00;99.90;;;;;;5046439;28;20440;-89
2022/12/28 00:53:59;;;;;;;8.18;2.75;;;6.00;99.90;;;;;;5073254;28;20033;-89
2022/12/28 00:56:24;;;;;;;10.32;3.22;;;6.00;99.90;;;;;;5058407;28;20040;-90
2022/12/28 00:58:56;;;;;;;7.80;2.90;;;6.00;99.90;;;;;;5089766;28;20047;-90
2022/12/28 01:01:22;;;;;;;10.15;2.63;;;6.00;99.90;;;;;;5058923;28;20047;-90
2022/12/28 01:03:48;;;;;;;7.70;3.28;;;6.00;99.90;;;;;;5088090;28;20039;-90
2022/12/28 01:06:16;;;;;;;8.23;2.85;;;6.00;99.90;;;;;;5038694;28;20421;-90
2022/12/28 01:08:42;;;;;;;9.00;3.20;;;6.00;99.90;;;;;;5038668;28;20079;-91
2022/12/28 01:11:21;;;;;;;9.45;2.72;;;6.10;99.90;;;;;;5038880;28;20408;-90
2022/12/28 01:13:48;;;;;;;9.50;2.67;;;6.00;99.90;;;;;;5038881;28;20497;-90
2022/12/28 01:16:25;;;;;;;8.52;2.58;;;6.00;99.90;;;;;;5041461;28;20048;-90
2022/12/28 01:18:52;;;;;;;9.10;3.00;;;6.10;99.90;;;;;;5073119;28;20041;-91
2022/12/28 01:21:22;;;;;;;7.20;2.45;;;6.00;99.90;;;;;;5054660;28;20056;-90
2022/12/28 01:23:48;;;;;;;12.68;3.47;;;6.00;99.90;;;;;;5038429;28;20371;-90
2022/12/28 01:26:15;;;;;;;8.63;2.65;;;6.10;99.90;;;;;;5058982;28;20568;-90
2022/12/28 01:28:41;;;;;;;11.38;3.60;;;6.10;99.90;;;;;;5055215;28;20037;-90
2022/12/28 01:31:09;;;;;;;7.57;2.95;;;6.10;99.90;;;;;;5077616;28;20040;-90
2022/12/28 01:33:35;;;;;;;10.48;3.13;;;6.10;99.90;;;;;;5058164;28;20497;-91
2022/12/28 01:36:12;;;;;;;8.77;3.17;;;6.10;99.90;;;;;;5074817;28;20051;-90
2022/12/28 01:38:38;;;;;;;6.88;2.75;;;6.10;99.90;;;;;;5052664;28;20088;-90
2022/12/28 01:41:06;;;;;;;9.65;3.38;;;6.10;99.90;;;;;;5074970;28;20032;-90
2022/12/28 01:43:40;;;;;;;7.43;2.95;;;6.10;99.90;;;;;;5049386;28;20032;-91
2022/12/28 01:46:09;;;;;;;8.77;3.30;;;6.10;99.90;;;;;;5057994;28;20036;-91
2022/12/28 01:48:39;;;;;;;8.25;2.88;;;6.10;99.90;;;;;;5092786;28;20516;-90
2022/12/28 01:51:04;;;;;;;7.40;3.13;;;6.10;99.90;;;;;;5088503;28;20036;-91
2022/12/28 01:53:30;;;;;;;9.45;3.15;;;6.10;99.90;;;;;;5057691;28;20431;-89
2022/12/28 01:55:56;;;;;;;5.22;1.77;;;6.20;99.90;;;;;;5069871;28;20044;-89
2022/12/28 01:58:27;;;;;;;9.75;3.08;;;6.20;99.90;;;;;;5092556;28;20036;-90
2022/12/28 02:00:53;;;;;;;11.93;3.65;;;6.20;99.90;;;;;;5092366;28;20516;-90
2022/12/28 02:03:22;;;;;;;8.23;3.25;;;6.20;99.90;;;;;;5066646;28;20036;-90
2022/12/28 02:05:50;;;;;;;9.50;3.08;;;6.20;99.90;;;;;;5054378;28;20082;-90
2022/12/28 02:08:30;;;;;;;12.00;3.25;;;6.30;99.90;;;;;;5083182;28;20647;-90
2022/12/28 02:10:56;;;;;;;7.75;3.30;;;6.30;99.90;;;;;;5074454;28;20119;-90
2022/12/28 02:13:23;;;;;;;10.95;3.03;;;6.30;99.90;;;;;;5049554;28;20809;-90
2022/12/28 02:15:50;;;;;;;9.70;3.15;;;6.30;99.90;;;;;;5037521;28;20047;-90
2022/12/28 02:18:18;;;;;;;6.85;2.90;;;6.40;99.90;;;;;;5071487;28;20118;-90
2022/12/28 02:21:08;;;;;;;9.95;3.17;;;6.40;99.90;;;;;;5052747;28;20040;-90
2022/12/28 02:23:37;;;;;;;6.25;2.60;;;6.40;99.90;;;;;;5091810;28;20036;-89
2022/12/28 02:26:30;;;;;;;8.40;2.97;;;6.50;99.90;;;;;;5086877;28;20036;-90
2022/12/28 02:28:59;;;;;;;;;;;6.50;99.90;;;;;;5057778;28;20409;-90
2022/12/28 02:32:05;;;;;;;7.47;2.25;;;6.50;99.90;;;;;;5049589;28;19916;-90
2022/12/28 02:34:48;;;;;;;13.35;3.50;;;6.50;99.90;;;;;;5071955;28;20032;-90
2022/12/28 02:37:48;;;;;;;10.93;4.13;;;6.50;99.90;;;;;;5070301;28;20098;-90
2022/12/28 02:40:32;;;;;;;10.07;3.03;;;6.50;99.90;;;;;;5033642;28;20045;-90
2022/12/28 02:43:01;;;;;;;9.48;3.25;;;6.50;99.90;;;;;;5033835;28;20036;-91
2022/12/28 02:51:26;;;;;;;6.75;2.70;;;6.50;99.90;;;;;;5065538;28;20131;-90
2022/12/28 02:56:06;;;;;;;7.70;3.17;;;6.50;99.90;;;;;;5056589;28;20044;-90
2022/12/28 02:57:31;;;;;;;13.25;3.83;;;6.50;99.90;;;;;;5053590;28;20052;-90
2022/12/28 03:00:14;;;;;;;8.75;3.40;;;6.50;99.90;;;;;;5053903;28;20045;-90
2022/12/28 03:02:46;;;;;;;;;;;6.50;99.90;;;;;;5083006;28;20434;-90
2022/12/28 03:05:12;;;;;;;7.63;2.67;;;6.50;99.90;;;;;;5091551;28;20003;-89
2022/12/28 03:10:30;;;;;;;11.35;3.30;;;6.50;99.90;;;;;;5053376;28;20048;-90
2022/12/28 03:13:41;;;;;;;11.07;3.63;;;6.50;99.90;;;;;;5036402;28;20609;-90
2022/12/28 03:16:05;;;;;;;7.38;3.38;;;6.60;99.90;;;;;;5065056;28;20040;-90
2022/12/28 03:32:28;;;;;;;11.80;3.70;;;6.60;99.90;;;;;;5037151;28;20036;-90
2022/12/28 03:34:53;;;;;;;9.88;3.40;;;6.70;99.90;;;;;;5052934;28;20068;-90
2022/12/28 03:37:37;;;;;;;12.60;3.50;;;6.70;99.90;;;;;;5053023;28;20072;-90
2022/12/28 03:40:17;;;;;;;8.63;3.63;;;6.70;99.90;;;;;;5038982;28;20375;-90
2022/12/28 03:46:17;;;;;;;9.23;3.33;;;6.80;99.90;;;;;;5066142;28;20502;-90
2022/12/28 03:48:44;;;;;;;8.90;3.50;;;6.80;99.90;;;;;;4958693;28;20077;-89
2022/12/28 03:51:13;;;;;;;8.40;3.20;;;6.80;99.90;;;;;;4992105;28;20046;-90
2022/12/28 03:53:42;;;;;;;9.00;2.83;;;6.80;99.90;;;;;;4976533;28;20077;-90
2022/12/28 03:56:10;;;;;;;8.27;3.17;;;6.80;99.90;;;;;;4991670;28;20416;-90
2022/12/28 03:58:36;;;;;;;6.05;2.33;;;6.90;99.90;;;;;;4974107;28;20170;-90
2022/12/28 04:01:02;;;;;;;9.30;3.50;;;6.90;99.90;;;;;;4976515;28;20081;-91
2022/12/28 04:03:28;;;;;;;9.20;3.58;;;6.90;99.90;;;;;;4970378;28;20034;-90
2022/12/28 04:05:54;;;;;;;7.18;2.45;;;6.90;99.90;;;;;;4976825;28;20066;-90
2022/12/28 04:08:20;;;;;;;7.00;2.80;;;6.90;99.90;;;;;;4992865;28;20061;-90
2022/12/28 04:10:46;;;;;;;8.63;2.70;;;6.90;99.90;;;;;;4978276;28;20440;-91
2022/12/28 04:13:12;;;;;;;6.75;2.80;;;6.90;99.90;;;;;;4973328;28;20489;-90
2022/12/28 04:15:37;;;;;;;7.25;3.28;;;6.90;99.90;;;;;;4954401;28;20568;-90
2022/12/28 04:18:03;;;;;;;8.27;2.70;;;6.90;99.90;;;;;;4986343;28;20054;-91
2022/12/28 04:20:28;;;;;;;9.50;3.25;;;7.00;99.90;;;;;;4992703;28;20038;-90
2022/12/28 04:22:54;;;;;;;7.65;2.55;;;7.00;99.90;;;;;;4968382;28;20150;-91
2022/12/28 04:25:20;;;;;;;7.50;2.85;;;6.90;99.90;;;;;;5046312;28;20418;-90
2022/12/28 04:27:45;;;;;;;6.47;2.42;;;7.00;99.90;;;;;;5036370;28;20617;-91
2022/12/28 04:30:11;;;;;;;9.32;3.53;;;7.00;99.90;;;;;;5086269;28;20036;-91
2022/12/28 04:32:37;;;;;;;7.15;2.70;;;7.00;99.90;;;;;;5093994;28;20553;-92
2022/12/28 04:35:03;;;;;;;7.00;2.55;;;7.00;99.90;;;;;;5051275;28;20032;-92
2022/12/28 04:37:28;;;;;;;7.45;2.70;;;7.00;99.90;;;;;;5056058;28;20383;-91
2022/12/28 04:39:54;;;;;;;6.78;2.80;;;7.00;99.90;;;;;;5045268;28;20054;-92
2022/12/28 04:42:20;;;;;;;10.98;3.33;;;7.10;99.90;;;;;;5041668;28;20689;-91
2022/12/28 04:44:45;;;;;;;5.32;2.50;;;7.10;99.90;;;;;;5041399;28;20040;-91
2022/12/28 04:47:12;;;;;;;7.07;2.05;;;7.10;99.90;;;;;;5072934;28;20097;-91
2022/12/28 04:49:37;;;;;;;6.95;2.63;;;7.10;99.90;;;;;;5075773;28;20717;-91
2022/12/28 04:52:03;;;;;;;6.90;2.72;;;7.10;99.90;;;;;;5053639;28;20040;-91
2022/12/28 04:54:29;;;;;;;6.60;2.92;;;7.10;99.90;;;;;;5093863;28;20040;-91
2022/12/28 04:56:54;;;;;;;8.93;2.33;;;7.20;99.90;;;;;;5069889;28;20036;-91
2022/12/28 04:59:21;;;;;;;5.85;2.00;;;7.20;99.90;;;;;;5018941;28;20130;-91
2022/12/28 05:01:47;;;;;;;6.30;2.10;;;7.20;99.90;;;;;;5035707;28;20124;-91
2022/12/28 05:04:13;;;;;;;7.22;2.38;;;7.20;99.90;;;;;;5073709;28;20028;-92
2022/12/28 05:06:38;;;;;;;7.85;2.65;;;7.30;99.90;;;;;;5075856;28;20036;-91
2022/12/28 05:09:04;;;;;;;5.75;2.45;;;7.30;99.90;;;;;;5088504;28;20540;-91
2022/12/28 05:11:30;;;;;;;5.60;2.30;;;7.30;99.90;;;;;;5075630;28;20040;-91
2022/12/28 05:13:56;;;;;;;6.57;2.85;;;7.30;99.90;;;;;;5074564;28;20062;-91
2022/12/28 05:16:24;;;;;;;6.80;2.67;;;7.30;99.90;;;;;;5071880;28;20062;-91
2022/12/28 05:18:50;;;;;;;4.07;2.08;;;7.30;99.90;;;;;;5058480;28;20040;-92
2022/12/28 05:21:19;;;;;;;4.80;2.15;;;7.30;99.90;;;;;;5075075;28;20460;-91
2022/12/28 05:23:45;;;;;;;6.22;2.20;;;7.30;99.90;;;;;;5038520;28;20483;-90
2022/12/28 05:26:13;;;;;;;4.18;1.73;;;7.40;99.90;;;;;;5055691;28;20036;-91
2022/12/28 05:28:39;;;;;;;3.70;1.85;;;7.40;99.90;;;;;;5052444;28;20032;-91
2022/12/28 05:31:08;;;;;;;6.15;2.60;;;7.40;99.90;;;;;;5075153;28;20101;-91
2022/12/28 05:33:35;;;;;;;4.45;1.85;;;7.50;99.90;;;;;;5056983;28;20037;-91
2022/12/28 05:36:06;;;;;;;5.55;2.58;;;7.50;99.90;;;;;;5038903;28;20048;-91
2022/12/28 05:38:32;;;;;;;5.63;2.35;;;7.50;99.90;;;;;;5045539;28;20406;-92
2022/12/28 05:41:11;;;;;;;8.02;3.40;;;7.50;99.90;;;;;;5037864;28;20490;-91
2022/12/28 05:43:37;;;;;;;6.03;2.58;;;7.60;99.90;;;;;;5043139;28;20036;-91
2022/12/28 05:46:05;;;;;;;7.28;2.92;;;7.60;99.90;;;;;;5055457;28;20403;-91
2022/12/28 05:48:33;;;;;;;7.22;2.97;;;7.60;99.90;;;;;;5074250;28;20050;-91
2022/12/28 05:51:04;;;;;;;6.00;2.88;;;7.70;99.90;;;;;;5037610;28;20048;-91
2022/12/28 05:53:31;;;;;;;6.43;2.47;;;7.70;99.90;;;;;;5037890;28;20063;-90
2022/12/28 05:56:09;;;;;;;6.95;2.75;;;7.70;99.90;;;;;;5039464;28;20044;-91
2022/12/28 05:58:35;;;;;;;6.93;2.78;;;7.80;99.90;;;;;;5037844;28;20513;-91
2022/12/28 06:01:05;;;;;;;6.43;2.55;;;7.80;99.90;;;;;;5062775;28;20029;-91
2022/12/28 06:03:31;;;;;;;6.65;3.10;;;7.80;99.90;;;;;;5074664;28;20502;-91
2022/12/28 06:06:05;;;;;;;7.07;2.53;;;7.90;99.90;;;;;;5088988;28;20611;-91
2022/12/28 06:08:30;;;;;;;6.55;2.75;;;7.80;99.90;;;;;;5034449;28;20041;-91
2022/12/28 06:11:01;;;;;;;8.75;3.50;;;7.90;99.90;;;;;;5052098;28;20037;-91
2022/12/28 06:13:27;;;;;;;7.88;3.00;;;7.90;99.90;;;;;;5039279;28;20556;-91
2022/12/28 06:15:52;;;;;;;7.15;3.40;;;7.90;99.90;;;;;;5074392;28;20036;-91
2022/12/28 06:18:18;;;;;;;6.05;2.70;;;7.90;99.90;;;;;;5068086;28;20055;-91
2022/12/28 06:20:44;;;;;;;7.03;2.38;;;7.90;99.90;;;;;;5054500;28;20043;-91
2022/12/28 06:23:09;;;;;;;5.93;2.60;;;7.90;99.90;;;;;;5037018;28;20371;-90
2022/12/28 06:25:37;;;;;;;7.70;3.72;;;7.90;99.90;;;;;;5048618;28;20071;-91
2022/12/28 06:28:03;;;;;;;8.23;3.47;;;7.90;99.90;;;;;;5057525;28;20035;-90
2022/12/28 06:30:28;;;;;;;6.97;3.25;;;7.90;99.90;;;;;;5052273;28;20577;-91
2022/12/28 06:32:57;;;;;;;8.18;3.40;;;8.00;99.90;;;;;;5056990;28;20118;-91
2022/12/28 06:35:23;;;;;;;6.88;3.08;;;8.00;99.90;;;;;;5051346;28;20040;-92
2022/12/28 06:37:49;;;;;;;6.95;3.33;;;8.00;99.90;;;;;;5072941;28;20059;-91
2022/12/28 06:40:14;;;;;;;6.25;2.75;;;8.00;99.90;;;;;;5052979;28;20063;-92
2022/12/28 06:42:40;;;;;;;7.13;3.25;;;8.00;99.90;;;;;;5053271;28;20444;-92
2022/12/28 06:45:06;;;;;;;8.05;3.63;;;8.10;99.90;;;;;;5053999;28;20028;-92
2022/12/28 06:47:34;;;;;;;7.78;3.13;;;8.10;99.90;;;;;;5037201;28;20123;-92
2022/12/28 06:50:00;;;;;;;7.28;3.53;;;8.10;99.90;;;;;;5053687;28;20080;-91
2022/12/28 06:52:26;;;;;;;7.57;3.95;;;8.20;99.90;;;;;;5055739;28;20480;-92
2022/12/28 06:54:52;;;;;;;6.13;2.95;;;8.20;99.90;;;;;;5053872;28;20044;-91
2022/12/28 06:57:18;;;;;;;8.65;3.85;;;8.20;99.90;;;;;;5056760;28;20044;-92
2022/12/28 06:59:44;;;;;;;7.38;4.03;;;8.20;99.90;;;;;;5087871;28;20028;-91
2022/12/28 07:02:10;;;;;;;6.47;3.20;;;8.20;99.90;;;;;;5073188;28;20505;-90
2022/12/28 07:04:35;;;;;;;9.68;3.97;;;8.20;99.90;;;;;;5050325;28;20153;-90
2022/12/28 07:07:01;;;;;;;7.78;3.85;;;8.20;99.90;;;;;;5053184;28;20119;-91
2022/12/28 07:09:26;;;;;;;7.75;3.45;;;8.30;99.90;;;;;;5036891;28;20486;-91
2022/12/28 07:11:52;;;;;;;7.32;4.15;;;8.30;99.90;;;;;;5068393;28;20082;-92
2022/12/28 07:14:18;;;;;;;8.63;4.75;;;8.30;99.90;;;;;;5056564;28;20078;-91
2022/12/28 07:16:44;;;;;;;8.00;4.32;;;8.40;99.90;;;;;;5066768;28;20054;-92
2022/12/28 07:19:09;;;;;;;7.70;3.90;;;8.40;99.90;;;;;;5055918;28;20043;-92
2022/12/28 07:21:37;;;;;;;6.93;3.63;;;8.40;99.90;;;;;;5055981;28;20040;-92
2022/12/28 07:24:04;;;;;;;8.48;4.97;;;8.40;99.90;;;;;;5055106;28;20036;-91
2022/12/28 07:26:32;;;;;;;6.57;3.70;;;8.50;99.90;;;;;;5036488;28;20028;-92
2022/12/28 07:28:59;;;;;;;8.57;4.72;;;8.50;99.90;;;;;;5038753;28;20149;-92
2022/12/28 07:31:28;;;;;;;8.00;4.03;;;8.50;99.90;;;;;;5056468;28;20078;-92
2022/12/28 07:33:56;;;;;;;7.35;4.15;;;8.50;99.90;;;;;;5072818;28;20596;-92
2022/12/28 07:36:23;;;;;;;6.93;3.80;;;8.50;99.90;;;;;;5071086;28;20063;-91
2022/12/28 07:38:49;;;;;;;9.32;5.32;;;8.60;99.90;;;;;;5056434;28;20127;-91
2022/12/28 07:41:21;;;;;;;7.82;4.70;;;8.60;99.90;;;;;;5053048;28;20471;-91
2022/12/28 07:43:47;;;;;;;10.70;4.80;;;8.60;99.90;;;;;;5052968;28;20226;-91
2022/12/28 07:46:15;;;;;;;7.95;4.57;;;8.60;99.90;;;;;;5036439;28;20127;-93
2022/12/28 07:48:42;;;;;;;9.00;5.13;;;8.70;99.90;;;;;;5053242;28;20048;-91
2022/12/28 07:51:10;;;;;;;9.57;4.97;;;8.70;99.90;;;;;;5036574;28;20524;-91
2022/12/28 07:53:37;;;;;;;9.50;5.53;;;8.70;99.90;;;;;;5038175;28;20511;-91
2022/12/28 07:56:03;;;;;;;8.02;4.78;;;8.70;99.90;;;;;;5035326;28;20547;-92
2022/12/28 07:58:29;;;;;;;8.15;4.80;;;8.70;99.90;;;;;;5035552;28;20036;-91
2022/12/28 08:01:08;;;;;;;9.98;5.07;;;8.80;99.90;;;;;;5051234;28;20101;-91
2022/12/28 08:03:34;;;;;;;8.35;4.60;;;8.80;99.90;;;;;;5072008;28;20036;-91
2022/12/28 08:06:08;;;;;;;10.25;4.47;;;8.80;99.90;;;;;;5057397;28;20051;-91
2022/12/28 08:08:38;;;;;;;7.10;4.03;;;8.80;99.90;;;;;;5070727;28;20091;-91
2022/12/28 08:11:06;;;;;;;8.63;5.00;;;8.80;99.90;;;;;;5052575;28;20051;-91
2022/12/28 08:13:37;;;;;;;11.40;5.22;;;8.80;99.90;;;;;;5052063;28;20048;-91
2022/12/28 08:16:03;;;;;;;11.45;6.78;;;8.80;99.90;;;;;;5036564;28;20040;-90
2022/12/28 08:18:29;;;;;;;9.20;5.15;;;8.80;99.90;;;;;;5052552;28;20036;-90
2022/12/28 08:21:00;;;;;;;11.52;5.28;;;8.80;99.90;;;;;;5052036;28;20047;-89
2022/12/28 08:23:26;;;;;;;10.55;5.68;;;8.80;99.90;;;;;;5066753;28;20425;-89
2022/12/28 08:25:51;;;;;;;9.43;5.15;;;8.80;99.90;;;;;;5090500;28;20509;-89
2022/12/28 08:28:17;;;;;;;9.73;5.13;;;8.80;99.90;;;;;;5089644;28;20048;-89
2022/12/28 08:30:43;;;;;;;9.85;5.00;;;8.80;99.90;;;;;;5072141;28;20153;-89
2022/12/28 08:33:08;;;;;;;10.05;4.55;;;8.80;99.90;;;;;;5051723;28;20400;-89
2022/12/28 08:35:34;;;;;;;8.55;4.70;;;8.80;99.90;;;;;;5053659;28;20040;-89
2022/12/28 08:37:59;;;;;;;10.88;4.20;;;8.80;99.90;;;;;;5059000;28;20131;-89
2022/12/28 08:40:28;;;;;;;10.88;5.32;;;8.80;99.90;;;;;;5088949;28;20037;-89
2022/12/28 08:43:00;;;;;;;9.40;4.20;;;8.80;99.90;;;;;;5075407;28;20032;-89
2022/12/28 08:45:26;;;;;;;7.93;3.67;;;8.80;99.90;;;;;;5058990;28;20027;-89
2022/12/28 08:47:52;;;;;;;6.68;3.35;;;8.80;99.90;;;;;;5050200;28;20105;-89
2022/12/28 08:50:18;;;;;;;8.35;4.45;;;8.80;99.90;;;;;;5038964;28;20409;-90
2022/12/28 08:52:44;;;;;;;9.88;4.45;;;8.80;99.90;;;;;;5043609;28;20032;-89
2022/12/28 08:55:09;;;;;;;7.13;3.67;;;8.80;99.90;;;;;;5039642;28;20398;-89
2022/12/28 08:57:35;;;;;;;8.35;4.10;;;8.80;99.90;;;;;;5057113;28;20124;-90
2022/12/28 09:00:01;;;;;;;8.07;3.55;;;8.80;99.90;;;;;;5058251;28;20158;-89
2022/12/28 09:02:26;;;;;;;8.13;3.88;;;8.80;99.90;;;;;;5038556;28;20529;-89
2022/12/28 09:04:52;;;;;;;8.95;4.38;;;8.90;99.90;;;;;;5041561;28;20387;-90
2022/12/28 09:07:17;;;;;;;5.82;3.05;;;8.90;99.90;;;;;;5057115;28;20134;-90
2022/12/28 09:09:43;;;;;;;8.52;4.38;;;8.90;99.90;;;;;;5075221;28;20051;-89
2022/12/28 09:12:08;;;;;;;6.88;2.88;;;8.90;99.90;;;;;;5050258;28;20516;-90
2022/12/28 09:14:34;;;;;;;7.60;3.60;;;8.90;99.90;;;;;;5057771;28;20486;-89
2022/12/28 09:17:01;;;;;;;7.18;3.45;;;8.90;99.90;;;;;;5065556;28;20075;-90
2022/12/28 09:19:26;;;;;;;8.57;4.22;;;9.00;99.90;;;;;;5057716;28;20065;-90
2022/12/28 09:21:54;;;;;;;9.02;4.57;;;9.00;99.90;;;;;;5073885;28;20084;-91
2022/12/28 09:24:21;;;;;;;7.70;3.47;;;9.00;99.90;;;;;;5057035;28;20040;-90
2022/12/28 09:26:47;;;;;;;8.27;4.47;;;9.00;99.90;;;;;;5074642;28;20099;-90
2022/12/28 09:29:13;;;;;;;8.68;4.15;;;9.00;99.90;;;;;;5055431;28;20125;-91
2022/12/28 09:31:40;;;;;;;6.78;3.65;;;9.10;99.90;;;;;;5058107;28;20178;-90
2022/12/28 09:34:11;;;;;;;8.02;4.13;;;9.10;99.90;;;;;;5057091;28;20620;-90
2022/12/28 09:36:43;;;;;;;7.38;3.15;;;9.10;99.90;;;;;;5054130;28;20036;-90
2022/12/28 09:39:15;;;;;;;8.15;3.92;;;9.10;99.90;;;;;;5036471;28;20055;-91
2022/12/28 09:41:44;;;;;;;;;;;9.10;99.90;;;;;;5037554;28;20047;-91
2022/12/28 09:44:14;;;;;;;9.30;4.43;;;9.10;99.90;;;;;;5053922;28;19916;-90
2022/12/28 09:46:53;;;;;;;7.07;2.95;;;9.10;99.90;;;;;;5039636;28;20129;-91
2022/12/28 09:49:26;;;;;;;8.45;4.20;;;9.10;99.90;;;;;;5056892;28;20127;-90
2022/12/28 09:52:00;;;;;;;8.48;4.18;;;9.10;99.90;;;;;;5057142;28;20042;-91
2022/12/28 09:54:25;;;;;;;8.10;4.38;;;9.20;99.90;;;;;;5057313;28;20055;-89
2022/12/28 09:56:52;;;;;;;9.85;4.47;;;9.20;99.90;;;;;;5074306;28;20044;-92
2022/12/28 09:59:23;;;;;;;7.75;4.05;;;9.20;99.90;;;;;;5056125;28;20085;-92
2022/12/28 10:02:01;;;;;;;9.50;4.07;;;9.20;99.90;;;;;;5057351;28;20048;-90
2022/12/28 10:04:27;;;;;;;8.13;4.10;;;9.20;99.90;;;;;;5057009;28;20042;-90
2022/12/28 10:06:52;;;;;;;8.13;3.92;;;9.20;99.90;;;;;;5056790;28;20036;-90
2022/12/28 10:09:26;;;;;;;8.40;4.72;;;9.20;99.90;;;;;;5056863;28;20126;-90
2022/12/28 10:11:52;;;;;;;8.88;4.18;;;9.20;99.90;;;;;;5057420;28;20043;-89
2022/12/28 10:14:20;;;;;;;7.60;3.55;;;9.20;99.90;;;;;;5056601;28;20413;-89
2022/12/28 10:16:46;;;;;;;7.15;3.53;;;9.20;99.90;;;;;;5056615;28;20533;-90
2022/12/28 10:19:18;;;;;;;7.57;3.90;;;9.20;99.90;;;;;;5056948;28;20036;-90
2022/12/28 10:21:45;;;;;;;7.63;3.90;;;9.20;99.90;;;;;;5055987;28;20038;-90
2022/12/28 10:24:12;;;;;;;10.98;4.07;;;9.20;99.90;;;;;;5064431;28;20044;-89
2022/12/28 10:26:41;;;;;;;7.03;3.55;;;9.30;99.90;;;;;;5053699;28;20041;-90
2022/12/28 10:29:15;;;;;;;7.00;3.28;;;9.30;99.90;;;;;;5046172;28;20040;-89
2022/12/28 10:31:42;;;;;;;7.05;3.55;;;9.30;99.90;;;;;;5037301;28;20043;-90
2022/12/28 10:34:16;;;;;;;6.15;3.10;;;9.30;99.90;;;;;;5039506;28;20048;-90
2022/12/28 10:36:42;;;;;;;7.53;3.20;;;9.30;99.90;;;;;;5072558;28;20047;-90
2022/12/28 10:39:16;;;;;;;8.90;3.50;;;9.30;99.90;;;;;;5056902;28;20044;-90
2022/12/28 10:41:44;;;;;;;7.07;2.92;;;9.30;99.90;;;;;;5055696;28;20040;-88
2022/12/28 10:44:27;;;;;;;4.55;2.15;;;9.30;99.90;;;;;;5055918;28;20044;-90
2022/12/28 10:47:01;;;;;;;6.30;3.05;;;9.30;99.90;;;;;;5056047;28;20032;-90
2022/12/28 10:49:34;;;;;;;5.68;2.50;;;9.30;99.90;;;;;;5072980;28;20036;-90
2022/12/28 10:52:06;;;;;;;7.13;2.97;;;9.30;99.90;;;;;;5072507;28;20036;-89
2022/12/28 10:54:35;;;;;;;6.50;2.70;;;9.30;99.90;;;;;;5055451;28;20043;-89
2022/12/28 10:57:01;;;;;;;7.53;2.70;;;9.30;99.90;;;;;;5072899;28;20043;-90
2022/12/28 10:59:29;;;;;;;7.10;3.10;;;9.30;99.90;;;;;;5055048;28;20044;-90
2022/12/28 11:02:22;;;;;;;5.93;2.63;;;9.40;99.90;;;;;;5056155;28;20047;-90
2022/12/28 11:04:57;;;;;;;5.78;2.55;;;9.40;99.90;;;;;;5055913;28;20079;-91
2022/12/28 11:07:27;;;;;;;5.88;2.67;;;9.40;99.90;;;;;;5055619;28;20489;-90
2022/12/28 11:09:53;;;;;;;6.22;2.78;;;9.40;99.90;;;;;;5056248;28;20042;-90
2022/12/28 11:12:25;;;;;;;5.88;2.42;;;9.40;99.90;;;;;;5055317;28;20510;-90
2022/12/28 11:14:51;;;;;;;5.70;2.47;;;9.40;99.90;;;;;;5055405;28;20032;-89
2022/12/28 11:17:21;;;;;;;7.07;2.55;;;9.40;99.90;;;;;;5056140;28;20040;-88
2022/12/28 11:19:56;;;;;;;4.97;2.25;;;9.40;99.90;;;;;;5071880;28;20032;-89
2022/12/28 11:22:24;;;;;;;6.90;2.90;;;9.40;99.90;;;;;;5055753;28;20032;-88
2022/12/28 11:24:50;;;;;;;5.82;2.53;;;9.40;99.90;;;;;;5056238;28;20040;-89
2022/12/28 11:27:20;;;;;;;5.32;2.35;;;9.40;99.90;;;;;;5059497;28;20040;-90
2022/12/28 11:29:49;;;;;;;5.28;2.30;;;9.40;99.90;;;;;;5035877;28;20072;-89
2022/12/28 11:32:31;;;;;;;5.68;2.05;;;9.40;99.90;;;;;;5038717;28;20097;-89
2022/12/28 11:34:57;;;;;;;5.32;2.20;;;9.40;99.90;;;;;;5072255;28;20055;-89
2022/12/28 11:37:23;;;;;;;6.25;2.47;;;9.50;99.90;;;;;;5072957;28;20485;-89
2022/12/28 11:39:51;;;;;;;6.43;2.53;;;9.50;99.90;;;;;;5054769;28;20036;-89
2022/12/28 11:42:34;;;;;;;7.47;2.75;;;9.50;99.90;;;;;;5055714;28;20036;-89
2022/12/28 11:45:04;;;;;;;5.40;2.03;;;9.50;99.90;;;;;;5072589;28;20044;-89
2022/12/28 11:47:33;;;;;;;5.25;2.17;;;9.50;99.90;;;;;;5072746;28;20047;-89
2022/12/28 11:50:33;;;;;;;6.20;2.20;;;9.50;99.90;;;;;;5071853;28;20369;-90
2022/12/28 11:53:00;;;;;;;6.57;2.10;;;9.50;99.90;;;;;;5054896;28;20044;-90
2022/12/28 11:55:37;;;;;;;4.15;1.83;;;9.50;99.90;;;;;;5054623;28;20045;-89
2022/12/28 11:58:38;;;;;;;3.90;1.60;;;9.50;99.90;;;;;;5070961;28;20089;-90
2022/12/28 12:01:07;;;;;;;4.25;1.67;;;9.50;99.90;;;;;;5022323;28;20125;-89
2022/12/28 12:03:57;;;;;;;3.80;1.75;;;9.50;99.90;;;;;;5049431;28;20032;-90
2022/12/28 12:06:44;;;;;;;4.55;2.22;;;9.50;99.90;;;;;;5052357;28;20036;-90
2022/12/28 12:09:28;;;;;;;3.67;1.65;;;9.50;99.90;;;;;;5056108;28;20127;-89
2022/12/28 12:11:54;;;;;;;4.78;2.20;;;9.50;99.90;;;;;;5059610;28;20131;-89
2022/12/28 12:14:35;;;;;;;4.47;2.00;;;9.50;99.90;;;;;;5075032;28;20499;-90
2022/12/28 12:17:21;;;;;;;6.90;1.75;;;9.50;99.90;;;;;;5076518;28;20610;-90
2022/12/28 12:19:50;;;;;;;6.03;2.28;;;9.40;99.90;;;;;;5056654;28;20036;-90
2022/12/28 12:22:33;;;;;;;3.95;1.52;;;9.50;99.90;;;;;;5037932;28;20071;-90
2022/12/28 12:25:25;;;;;;;5.60;2.13;;;9.40;99.90;;;;;;5071570;28;20488;-90
2022/12/28 12:27:59;;;;;;;5.03;1.85;;;9.50;99.90;;;;;;5059155;28;20127;-90
2022/12/28 12:30:26;;;;;;;5.10;1.75;;;9.40;99.90;;;;;;5059398;28;20050;-89
2022/12/28 12:32:56;;;;;;;3.95;1.70;;;9.40;99.90;;;;;;5075708;28;20094;-91
2022/12/28 12:35:33;;;;;;;5.25;1.98;;;9.50;99.90;;;;;;5059386;28;20054;-89
2022/12/28 12:37:59;;;;;;;4.07;1.80;;;9.50;99.90;;;;;;5058459;28;20408;-90
2022/12/28 12:40:30;;;;;;;4.90;1.98;;;9.40;99.90;;;;;;5056628;28;20132;-88
2022/12/28 12:43:13;;;;;;;4.35;1.80;;;9.50;99.90;;;;;;5048774;28;20512;-91
2022/12/28 12:46:08;;;;;;;5.20;1.83;;;9.50;99.90;;;;;;5081648;28;20149;-91
2022/12/28 12:48:43;;;;;;;4.32;1.60;;;9.50;99.90;;;;;;5062404;28;20040;-90
2022/12/28 12:51:18;;;;;;;3.17;1.48;;;9.50;99.90;;;;;;5051757;28;20041;-89
2022/12/28 12:53:52;;;;;;;3.20;1.38;;;9.50;99.90;;;;;;5044448;28;20070;-90
2022/12/28 12:56:39;;;;;;;4.45;1.50;;;9.50;99.90;;;;;;5058661;28;20061;-89
2022/12/28 13:00:00;;;;;;;5.05;1.75;;;9.50;99.90;;;;;;5058321;28;20547;-90
2022/12/28 13:02:37;;;;;;;3.63;1.58;;;9.50;99.90;;;;;;4977602;28;20038;-90
2022/12/28 13:05:04;;;;;;;3.47;1.20;;;9.50;99.90;;;;;;4977666;28;20419;-91
2022/12/28 13:07:31;;;;;;;4.80;1.73;;;9.50;99.90;;;;;;5030443;28;20048;-89
2022/12/28 13:10:01;;;;;;;3.47;1.13;;;9.50;99.90;;;;;;5075163;28;20048;-90
2022/12/28 13:12:27;;;;;;;3.60;1.23;;;9.60;99.90;;;;;;5073750;28;20451;-93
2022/12/28 13:15:01;;;;;;;4.32;1.40;;;9.60;99.90;;;;;;5058598;28;20454;-91
2022/12/28 13:17:27;;;;;;;3.10;1.15;;;9.60;99.90;;;;;;5057896;28;20044;-93
2022/12/28 13:20:20;;;;;;;2.85;1.10;;;9.60;99.90;;;;;;5057894;28;20036;-92
2022/12/28 13:22:47;;;;;;;2.78;1.17;;;9.60;99.90;;;;;;5056896;28;20039;-91
2022/12/28 13:25:33;;;;;;;1.45;0.77;;;9.60;99.90;;;;;;5093096;28;20067;-92
2022/12/28 13:28:02;;;;;;;1.48;0.80;;;9.60;99.90;;;;;;5073956;28;20036;-92
2022/12/28 13:30:29;;;;;;;3.58;1.20;;;9.60;99.90;;;;;;5074729;28;20048;-91
2022/12/28 13:32:57;;;;;;;4.07;0.95;;;9.60;99.90;;;;;;5092799;28;20097;-93
2022/12/28 13:35:33;;;;;;;1.48;0.75;;;9.60;99.90;;;;;;5056812;28;20063;-93
2022/12/28 13:38:01;;;;;;;1.70;0.95;;;9.60;99.90;;;;;;5058253;28;20046;-92